Time;durP1;ratioP1;P1;durP2;ratioP2;P2;SDS_P1;SDS_P2;PMS_P1;PMS_P2;Temp;Humidity;BMP_temperature;BMP_pressure;BME280_temperature;BME280_humidity;BME280_pressure;Samples;Min_cycle;Max_cycle;Signal;HPM_P1;HPM_P2
2021/08/23 00:02:16;;;;;;;7.15;4.22;;;;;;;;;;4366789;32;20077;-73
2021/08/23 00:04:43;;;;;;;6.12;4.43;;;;;;;;;;4378792;32;20074;-73
2021/08/23 00:07:09;;;;;;;6.20;4.50;;;;;;;;;;4366357;32;20090;-73
2021/08/23 00:09:36;;;;;;;6.15;4.60;;;;;;;;;;4379024;32;20076;-74
2021/08/23 00:12:02;;;;;;;6.20;4.82;;;;;;;;;;4354077;32;20092;-74
2021/08/23 00:14:29;;;;;;;7.72;5.57;;;;;;;;;;4341770;32;20089;-74
2021/08/23 00:16:55;;;;;;;9.32;5.30;;;;;;;;;;4378879;32;20097;-73
2021/08/23 00:19:22;;;;;;;8.10;4.85;;;;;;;;;;4379001;32;20097;-74
2021/08/23 00:22:00;;;;;;;7.43;4.97;;;;;;;;;;4366606;32;20153;-74
2021/08/23 00:24:26;;;;;;;7.55;5.12;;;;;;;;;;4392323;32;20078;-72
2021/08/23 00:26:54;;;;;;;7.43;5.30;;;;;;;;;;4341575;32;20112;-72
2021/08/23 00:29:21;;;;;;;8.50;5.03;;;;;;;;;;4354092;32;20125;-73
2021/08/23 00:31:48;;;;;;;8.38;5.37;;;;;;;;;;4354168;32;20089;-74
2021/08/23 00:34:15;;;;;;;7.43;5.28;;;;;;;;;;4366489;32;20081;-73
2021/08/23 00:36:41;;;;;;;6.03;4.45;;;;;;;;;;4365991;32;20103;-73
2021/08/23 00:39:08;;;;;;;9.27;5.37;;;;;;;;;;4365638;32;20088;-73
2021/08/23 00:41:38;;;;;;;6.28;4.80;;;;;;;;;;4392186;32;20069;-73
2021/08/23 00:44:07;;;;;;;9.48;5.57;;;;;;;;;;4365322;32;20170;-73
2021/08/23 00:46:37;;;;;;;6.75;5.15;;;;;;;;;;4365904;32;20460;-73
2021/08/23 00:49:04;;;;;;;5.62;4.87;;;;;;;;;;4353850;32;20090;-74
2021/08/23 00:51:30;;;;;;;7.32;5.55;;;;;;;;;;4365718;32;20172;-72
2021/08/23 00:53:57;;;;;;;7.37;5.90;;;;;;;;;;4341403;32;20104;-73
2021/08/23 00:56:23;;;;;;;7.95;5.45;;;;;;;;;;4365974;32;20154;-72
2021/08/23 00:58:50;;;;;;;8.30;5.65;;;;;;;;;;4377665;32;20089;-73
2021/08/23 01:01:45;;;;;;;7.75;5.75;;;;;;;;;;4366184;32;20141;-72
2021/08/23 01:04:40;;;;;;;7.55;5.20;;;;;;;;;;4365769;32;20085;-72
2021/08/23 01:07:09;;;;;;;11.75;5.62;;;;;;;;;;4340060;32;20504;-73
2021/08/23 01:09:35;;;;;;;9.82;5.53;;;;;;;;;;4353420;32;20096;-73
2021/08/23 01:12:04;;;;;;;9.27;4.97;;;;;;;;;;4365692;32;20447;-73
2021/08/23 01:14:30;;;;;;;7.22;5.55;;;;;;;;;;4365979;32;20149;-73
2021/08/23 01:16:57;;;;;;;11.40;4.93;;;;;;;;;;4378118;32;20089;-74
2021/08/23 01:19:23;;;;;;;9.15;5.70;;;;;;;;;;4352581;32;20524;-74
2021/08/23 01:21:51;;;;;;;7.20;5.10;;;;;;;;;;4353303;32;20086;-72
2021/08/23 01:24:17;;;;;;;6.05;4.70;;;;;;;;;;4365990;32;20078;-74
2021/08/23 01:26:46;;;;;;;7.68;5.60;;;;;;;;;;4353026;32;20119;-72
2021/08/23 01:29:25;;;;;;;9.23;5.47;;;;;;;;;;4353270;32;20066;-74
2021/08/23 01:31:56;;;;;;;7.70;5.80;;;;;;;;;;4354325;32;20525;-71
2021/08/23 01:34:23;;;;;;;8.57;5.50;;;;;;;;;;4378279;32;20146;-73
2021/08/23 01:36:50;;;;;;;6.87;5.20;;;;;;;;;;4365349;32;20080;-72
2021/08/23 01:39:18;;;;;;;6.87;5.45;;;;;;;;;;4378037;32;20089;-74
2021/08/23 01:41:45;;;;;;;10.75;5.53;;;;;;;;;;4364879;32;20108;-73
2021/08/23 01:44:11;;;;;;;8.45;5.20;;;;;;;;;;4365090;32;20101;-73
2021/08/23 01:46:38;;;;;;;9.38;5.30;;;;;;;;;;4365354;32;20545;-73
2021/08/23 01:49:06;;;;;;;10.57;5.82;;;;;;;;;;4352700;32;20081;-73
2021/08/23 01:51:33;;;;;;;8.55;5.40;;;;;;;;;;4352839;32;20080;-73
2021/08/23 01:53:59;;;;;;;9.05;5.57;;;;;;;;;;4365532;32;20492;-74
2021/08/23 01:56:27;;;;;;;9.85;5.53;;;;;;;;;;4352634;32;20074;-73
2021/08/23 01:58:54;;;;;;;7.70;5.20;;;;;;;;;;4376974;32;20081;-73
2021/08/23 02:01:21;;;;;;;8.77;5.30;;;;;;;;;;4340182;32;20542;-73
2021/08/23 02:03:49;;;;;;;10.15;5.80;;;;;;;;;;4352809;32;20073;-74
2021/08/23 02:06:16;;;;;;;7.93;5.12;;;;;;;;;;4364943;32;20069;-74
2021/08/23 02:08:43;;;;;;;8.13;5.25;;;;;;;;;;4377768;32;20065;-72
2021/08/23 02:11:10;;;;;;;8.80;5.35;;;;;;;;;;4377070;32;20081;-72
2021/08/23 02:13:36;;;;;;;12.50;6.40;;;;;;;;;;4377570;32;20077;-72
2021/08/23 02:16:03;;;;;;;10.48;6.07;;;;;;;;;;4364958;32;20085;-72
2021/08/23 02:18:29;;;;;;;9.98;6.35;;;;;;;;;;4390879;32;20094;-72
2021/08/23 02:20:56;;;;;;;7.93;6.05;;;;;;;;;;4377407;32;20070;-73
2021/08/23 02:23:22;;;;;;;11.52;6.85;;;;;;;;;;4352373;32;20113;-74
2021/08/23 02:25:49;;;;;;;9.23;6.07;;;;;;;;;;4377630;32;20084;-74
2021/08/23 02:28:15;;;;;;;8.75;6.22;;;;;;;;;;4391111;32;20156;-74
2021/08/23 02:30:42;;;;;;;9.30;5.55;;;;;;;;;;4364836;32;20085;-73
2021/08/23 02:33:08;;;;;;;9.57;5.50;;;;;;;;;;4365261;32;20085;-72
2021/08/23 02:35:35;;;;;;;7.57;5.28;;;;;;;;;;4377048;32;20576;-73
2021/08/23 02:38:01;;;;;;;8.50;6.40;;;;;;;;;;4364405;32;20161;-73
2021/08/23 02:40:28;;;;;;;8.52;5.50;;;;;;;;;;4352355;32;20066;-72
2021/08/23 02:42:54;;;;;;;6.93;4.53;;;;;;;;;;4377702;32;20096;-74
2021/08/23 02:45:21;;;;;;;7.28;4.43;;;;;;;;;;4365160;32;20181;-72
2021/08/23 02:47:47;;;;;;;5.37;3.95;;;;;;;;;;4391247;32;20100;-74
2021/08/23 02:50:14;;;;;;;7.75;5.25;;;;;;;;;;4376920;32;20078;-72
2021/08/23 02:52:40;;;;;;;7.70;5.15;;;;;;;;;;4352517;32;20096;-74
2021/08/23 02:55:07;;;;;;;6.78;5.30;;;;;;;;;;4376992;32;20619;-74
2021/08/23 02:57:34;;;;;;;8.27;6.37;;;;;;;;;;4364770;32;20084;-73
2021/08/23 03:00:01;;;;;;;6.45;4.57;;;;;;;;;;4364516;32;20174;-74
2021/08/23 03:02:27;;;;;;;5.90;4.53;;;;;;;;;;4376758;32;20073;-73
2021/08/23 03:04:53;;;;;;;9.15;5.93;;;;;;;;;;4376874;32;20508;-74
2021/08/23 03:07:20;;;;;;;7.18;4.87;;;;;;;;;;4379202;32;20184;-73
2021/08/23 03:09:46;;;;;;;8.65;5.87;;;;;;;;;;4367353;32;20085;-74
2021/08/23 03:12:13;;;;;;;14.38;6.90;;;;;;;;;;4380194;32;20078;-73
2021/08/23 03:14:39;;;;;;;9.95;5.65;;;;;;;;;;4367400;32;20242;-72
2021/08/23 03:18:25;;;;;;;8.48;5.37;;;;;;;;;;3834156;37;20066;-74
2021/08/23 03:20:51;;;;;;;9.80;5.95;;;;;;;;;;4390523;32;20077;-74
2021/08/23 03:23:18;;;;;;;9.57;6.70;;;;;;;;;;4378071;32;20108;-74
2021/08/23 03:25:44;;;;;;;7.95;5.43;;;;;;;;;;4377890;32;20046;-74
2021/08/23 03:28:11;;;;;;;6.70;5.45;;;;;;;;;;4390545;32;20069;-74
2021/08/23 03:30:37;;;;;;;7.43;5.43;;;;;;;;;;4365959;32;20077;-74
2021/08/23 03:33:04;;;;;;;8.73;6.30;;;;;;;;;;4353343;32;20085;-73
2021/08/23 03:35:30;;;;;;;7.60;6.20;;;;;;;;;;4353063;32;20116;-73
2021/08/23 03:37:59;;;;;;;8.18;5.82;;;;;;;;;;4378069;32;20081;-74
2021/08/23 03:40:25;;;;;;;9.23;6.97;;;;;;;;;;4378465;32;20082;-75
2021/08/23 03:42:51;;;;;;;9.00;6.55;;;;;;;;;;4404499;32;20081;-74
2021/08/23 03:45:18;;;;;;;9.60;7.37;;;;;;;;;;4378080;32;20085;-73
2021/08/23 03:47:44;;;;;;;10.05;6.45;;;;;;;;;;4378926;32;20165;-73
2021/08/23 03:50:11;;;;;;;10.35;6.65;;;;;;;;;;4404251;32;20089;-73
2021/08/23 03:52:38;;;;;;;11.60;8.05;;;;;;;;;;4404288;32;20077;-73
2021/08/23 03:55:08;;;;;;;10.13;6.80;;;;;;;;;;4390704;32;20164;-73
2021/08/23 03:57:35;;;;;;;11.93;7.18;;;;;;;;;;4377855;32;20251;-73
2021/08/23 04:00:05;;;;;;;10.88;6.70;;;;;;;;;;4377955;32;20085;-74
2021/08/23 04:02:33;;;;;;;8.55;6.32;;;;;;;;;;4365880;32;20098;-73
2021/08/23 04:04:59;;;;;;;11.25;8.07;;;;;;;;;;4377713;32;20088;-73
2021/08/23 04:07:26;;;;;;;10.18;7.47;;;;;;;;;;4377834;32;20088;-73
2021/08/23 04:09:52;;;;;;;10.32;8.02;;;;;;;;;;4377675;32;20077;-72
2021/08/23 04:12:19;;;;;;;10.93;7.60;;;;;;;;;;4389901;32;20080;-73
2021/08/23 04:14:45;;;;;;;9.57;7.65;;;;;;;;;;4389897;32;20078;-73
2021/08/23 04:17:12;;;;;;;10.90;8.00;;;;;;;;;;4377525;32;20096;-72
2021/08/23 04:19:38;;;;;;;13.60;7.28;;;;;;;;;;4378640;32;20167;-72
2021/08/23 04:22:05;;;;;;;10.40;7.60;;;;;;;;;;4377938;32;20516;-71
2021/08/23 04:24:31;;;;;;;13.23;8.25;;;;;;;;;;4377181;32;20173;-73
2021/08/23 04:26:58;;;;;;;12.63;7.30;;;;;;;;;;4377442;32;20513;-73
2021/08/23 04:29:24;;;;;;;10.02;7.43;;;;;;;;;;4369287;32;20089;-73
2021/08/23 04:31:50;;;;;;;10.35;7.22;;;;;;;;;;4354471;32;20532;-72
2021/08/23 04:34:17;;;;;;;8.50;6.65;;;;;;;;;;4354880;32;20081;-71
2021/08/23 04:36:44;;;;;;;10.88;7.30;;;;;;;;;;4343116;32;20084;-73
2021/08/23 04:39:10;;;;;;;9.70;8.32;;;;;;;;;;4367090;32;20097;-73
2021/08/23 04:41:38;;;;;;;6.45;4.37;;;;;;;;;;4379307;32;20595;-73
2021/08/23 04:44:04;;;;;;;10.35;7.15;;;;;;;;;;4367283;32;20094;-72
2021/08/23 04:46:31;;;;;;;9.43;7.70;;;;;;;;;;4367210;32;20088;-73
2021/08/23 04:48:57;;;;;;;9.77;7.40;;;;;;;;;;4366952;32;20064;-72
2021/08/23 04:51:24;;;;;;;9.85;7.37;;;;;;;;;;4354782;32;20076;-74
2021/08/23 04:53:50;;;;;;;10.80;7.87;;;;;;;;;;4366927;32;20058;-72
2021/08/23 04:56:17;;;;;;;11.63;7.32;;;;;;;;;;4366667;32;20062;-72
2021/08/23 04:58:44;;;;;;;8.85;6.57;;;;;;;;;;4366885;32;20069;-73
2021/08/23 05:01:11;;;;;;;8.15;5.70;;;;;;;;;;4367273;32;20070;-74
2021/08/23 05:03:38;;;;;;;8.98;5.53;;;;;;;;;;4342184;32;20082;-71
2021/08/23 05:06:04;;;;;;;9.90;6.68;;;;;;;;;;4379220;32;20090;-73
2021/08/23 05:08:31;;;;;;;12.05;6.30;;;;;;;;;;4393366;32;20063;-73
2021/08/23 05:10:57;;;;;;;20.58;7.78;;;;;;;;;;4354356;32;20093;-73
2021/08/23 05:13:24;;;;;;;8.25;5.35;;;;;;;;;;4353988;32;20643;-73
2021/08/23 05:15:50;;;;;;;10.02;6.62;;;;;;;;;;4379142;32;20081;-71
2021/08/23 05:18:17;;;;;;;9.73;7.10;;;;;;;;;;4353714;32;20093;-72
2021/08/23 05:20:43;;;;;;;10.32;6.80;;;;;;;;;;4379003;32;20097;-73
2021/08/23 05:23:10;;;;;;;7.70;5.62;;;;;;;;;;4366343;32;20094;-73
2021/08/23 05:25:37;;;;;;;11.07;7.10;;;;;;;;;;4379267;32;20066;-73
2021/08/23 05:28:04;;;;;;;9.88;6.97;;;;;;;;;;4378878;32;20077;-73
2021/08/23 05:30:30;;;;;;;8.15;6.50;;;;;;;;;;4341309;32;20463;-73
2021/08/23 05:32:57;;;;;;;10.65;6.30;;;;;;;;;;4366287;32;20100;-72
2021/08/23 05:35:24;;;;;;;9.40;7.37;;;;;;;;;;4392468;32;20063;-73
2021/08/23 05:37:51;;;;;;;9.40;6.22;;;;;;;;;;4366369;32;20074;-71
2021/08/23 05:40:19;;;;;;;9.43;6.10;;;;;;;;;;4365295;32;20074;-73
2021/08/23 05:42:46;;;;;;;6.35;3.75;;;;;;;;;;4378642;32;20101;-71
2021/08/23 05:45:12;;;;;;;9.27;6.07;;;;;;;;;;4353702;32;20093;-72
2021/08/23 05:47:39;;;;;;;7.90;6.70;;;;;;;;;;4366044;32;20077;-72
2021/08/23 05:50:06;;;;;;;9.27;5.97;;;;;;;;;;4392513;32;20166;-73
2021/08/23 05:52:33;;;;;;;7.87;5.30;;;;;;;;;;4366348;32;20093;-74
2021/08/23 05:54:59;;;;;;;8.75;6.18;;;;;;;;;;4366556;32;20496;-74
2021/08/23 05:57:27;;;;;;;6.85;5.30;;;;;;;;;;4354435;32;20094;-72
2021/08/23 05:59:56;;;;;;;8.10;6.18;;;;;;;;;;4353769;32;20583;-73
2021/08/23 06:02:23;;;;;;;8.40;6.75;;;;;;;;;;4353993;32;20161;-73
2021/08/23 06:04:49;;;;;;;8.18;5.28;;;;;;;;;;4392373;32;20073;-73
2021/08/23 06:07:16;;;;;;;11.15;5.65;;;;;;;;;;4366380;32;20092;-73
2021/08/23 06:09:42;;;;;;;9.88;6.22;;;;;;;;;;4378224;32;20084;-73
2021/08/23 06:12:09;;;;;;;9.35;6.82;;;;;;;;;;4365609;32;20074;-73
2021/08/23 06:14:40;;;;;;;8.30;5.93;;;;;;;;;;4378044;32;20081;-73
2021/08/23 06:17:07;;;;;;;9.55;6.30;;;;;;;;;;4365672;32;20085;-73
2021/08/23 06:19:33;;;;;;;11.30;6.10;;;;;;;;;;4366243;32;20088;-72
2021/08/23 06:22:00;;;;;;;8.70;5.85;;;;;;;;;;4378423;32;20077;-73
2021/08/23 06:24:27;;;;;;;14.38;3.85;;;;;;;;;;4365565;32;20076;-72
2021/08/23 06:26:53;;;;;;;8.88;6.80;;;;;;;;;;4365621;32;20074;-73
2021/08/23 06:29:20;;;;;;;8.55;6.68;;;;;;;;;;4365592;32;20077;-73
2021/08/23 06:31:46;;;;;;;10.10;6.35;;;;;;;;;;4353302;32;20102;-73
2021/08/23 06:34:13;;;;;;;10.45;6.90;;;;;;;;;;4378760;32;20505;-72
2021/08/23 06:36:42;;;;;;;9.65;7.25;;;;;;;;;;4391840;32;20183;-72
2021/08/23 06:39:08;;;;;;;9.57;6.62;;;;;;;;;;4379355;32;20088;-72
2021/08/23 06:41:34;;;;;;;9.52;6.30;;;;;;;;;;4387340;32;20078;-74
2021/08/23 06:44:01;;;;;;;10.65;6.72;;;;;;;;;;4382523;32;20146;-72
2021/08/23 06:46:27;;;;;;;7.82;5.37;;;;;;;;;;4365500;32;20101;-73
2021/08/23 06:48:54;;;;;;;8.55;6.47;;;;;;;;;;4369623;32;20146;-73
2021/08/23 06:51:22;;;;;;;10.40;6.90;;;;;;;;;;4370615;32;20054;-73
2021/08/23 06:53:48;;;;;;;8.00;6.50;;;;;;;;;;4372094;32;20062;-73
2021/08/23 06:56:15;;;;;;;9.52;6.72;;;;;;;;;;4387990;32;20078;-72
2021/08/23 06:58:42;;;;;;;8.32;7.07;;;;;;;;;;4365750;32;20088;-74
2021/08/23 07:01:08;;;;;;;14.02;7.07;;;;;;;;;;4366607;32;20078;-73
2021/08/23 07:03:35;;;;;;;8.32;5.72;;;;;;;;;;4365688;32;20093;-72
2021/08/23 07:06:02;;;;;;;9.02;5.95;;;;;;;;;;4353581;32;20090;-73
2021/08/23 07:08:29;;;;;;;8.77;5.82;;;;;;;;;;4353424;32;20114;-72
2021/08/23 07:10:57;;;;;;;10.05;6.72;;;;;;;;;;4377629;32;20090;-72
2021/08/23 07:13:24;;;;;;;10.15;5.68;;;;;;;;;;4363285;32;20101;-74
2021/08/23 07:15:50;;;;;;;11.90;6.40;;;;;;;;;;4367721;32;20163;-73
2021/08/23 07:18:17;;;;;;;7.35;5.53;;;;;;;;;;4364377;32;20077;-72
2021/08/23 07:20:43;;;;;;;8.50;6.28;;;;;;;;;;4377675;32;20070;-80
2021/08/23 07:23:10;;;;;;;7.80;6.30;;;;;;;;;;4378094;32;20080;-78
2021/08/23 07:25:36;;;;;;;8.95;6.00;;;;;;;;;;4362223;32;20173;-75
2021/08/23 07:28:03;;;;;;;7.28;5.53;;;;;;;;;;4346550;32;20117;-77
2021/08/23 07:30:29;;;;;;;9.32;5.80;;;;;;;;;;4368323;32;20162;-77
2021/08/23 07:32:56;;;;;;;7.45;6.03;;;;;;;;;;4357931;32;20091;-76
2021/08/23 07:35:23;;;;;;;7.30;6.15;;;;;;;;;;4347948;32;20094;-74
2021/08/23 07:37:49;;;;;;;8.07;6.00;;;;;;;;;;4332029;32;20174;-76
2021/08/23 07:40:16;;;;;;;8.93;5.97;;;;;;;;;;4357910;32;20070;-73
2021/08/23 07:42:43;;;;;;;8.95;5.95;;;;;;;;;;4343514;32;20437;-78
2021/08/23 07:45:10;;;;;;;8.15;5.72;;;;;;;;;;4379027;32;20165;-78
2021/08/23 07:47:38;;;;;;;6.70;5.15;;;;;;;;;;4341566;32;20078;-77
2021/08/23 07:50:05;;;;;;;7.75;5.70;;;;;;;;;;4340877;32;20067;-74
2021/08/23 07:52:32;;;;;;;10.02;5.57;;;;;;;;;;4352769;32;20114;-76
2021/08/23 07:54:58;;;;;;;8.88;6.05;;;;;;;;;;4335646;32;20106;-72
2021/08/23 07:57:25;;;;;;;10.70;5.90;;;;;;;;;;4384168;32;20089;-74
2021/08/23 07:59:51;;;;;;;6.28;5.10;;;;;;;;;;4365009;32;20089;-77
2021/08/23 08:02:18;;;;;;;7.03;5.37;;;;;;;;;;4358193;32;20457;-74
2021/08/23 08:04:45;;;;;;;9.63;5.55;;;;;;;;;;4365580;32;20069;-78
2021/08/23 08:07:11;;;;;;;8.75;6.10;;;;;;;;;;4355107;32;20073;-74
2021/08/23 08:09:38;;;;;;;8.95;6.25;;;;;;;;;;4352532;32;20172;-77
2021/08/23 08:12:06;;;;;;;11.10;5.45;;;;;;;;;;4336991;32;20497;-76
2021/08/23 08:14:33;;;;;;;9.38;5.32;;;;;;;;;;4366933;32;20082;-75
2021/08/23 08:16:59;;;;;;;8.27;5.28;;;;;;;;;;4360978;32;20104;-75
2021/08/23 08:19:26;;;;;;;9.70;6.47;;;;;;;;;;4365737;32;20157;-76
2021/08/23 08:21:53;;;;;;;7.57;5.80;;;;;;;;;;4343797;32;20078;-74
2021/08/23 08:24:19;;;;;;;7.57;5.78;;;;;;;;;;4357133;32;20525;-74
2021/08/23 08:26:46;;;;;;;7.78;5.80;;;;;;;;;;4371377;32;20124;-77
2021/08/23 08:29:13;;;;;;;7.95;5.78;;;;;;;;;;4345864;32;20577;-78
2021/08/23 08:31:39;;;;;;;9.40;5.95;;;;;;;;;;4335709;32;20503;-77
2021/08/23 08:34:06;;;;;;;7.28;5.57;;;;;;;;;;4364406;32;20070;-74
2021/08/23 08:36:33;;;;;;;6.53;4.95;;;;;;;;;;4352976;32;20193;-75
2021/08/23 08:38:59;;;;;;;6.53;5.22;;;;;;;;;;4339902;32;20082;-77
2021/08/23 08:41:30;;;;;;;7.68;5.05;;;;;;;;;;4364742;32;20090;-75
2021/08/23 08:43:57;;;;;;;7.60;5.65;;;;;;;;;;4367502;32;20097;-76
2021/08/23 08:46:24;;;;;;;7.22;5.30;;;;;;;;;;4366421;32;20066;-72
2021/08/23 08:48:50;;;;;;;6.85;4.78;;;;;;;;;;4346620;32;20084;-75
2021/08/23 08:51:17;;;;;;;6.00;4.82;;;;;;;;;;4366441;32;20505;-75
2021/08/23 08:53:43;;;;;;;9.23;5.30;;;;;;;;;;4367227;32;20097;-74
2021/08/23 08:56:10;;;;;;;8.60;5.03;;;;;;;;;;4382275;32;20599;-75
2021/08/23 08:58:36;;;;;;;7.05;5.62;;;;;;;;;;4365091;32;20082;-74
2021/08/23 09:01:06;;;;;;;7.62;5.15;;;;;;;;;;4355851;32;20081;-75
2021/08/23 09:03:32;;;;;;;9.70;5.62;;;;;;;;;;4371041;32;20166;-77
2021/08/23 09:06:04;;;;;;;8.23;5.60;;;;;;;;;;4384304;32;20138;-78
2021/08/23 09:08:31;;;;;;;6.22;5.05;;;;;;;;;;4337605;32;20078;-77
2021/08/23 09:11:10;;;;;;;6.75;5.20;;;;;;;;;;4343994;32;20074;-70
2021/08/23 09:13:38;;;;;;;8.20;5.32;;;;;;;;;;4335904;32;20151;-67
2021/08/23 09:16:05;;;;;;;7.90;5.22;;;;;;;;;;4345170;32;20074;-74
2021/08/23 09:18:31;;;;;;;10.18;5.40;;;;;;;;;;4345601;32;20141;-71
2021/08/23 09:21:04;;;;;;;6.72;5.43;;;;;;;;;;4372135;32;20076;-71
2021/08/23 09:23:35;;;;;;;7.85;5.75;;;;;;;;;;4362128;32;20094;-71
2021/08/23 09:26:15;;;;;;;8.25;5.18;;;;;;;;;;4383420;32;20129;-71
2021/08/23 09:28:54;;;;;;;7.22;4.97;;;;;;;;;;4356754;32;20147;-73
2021/08/23 09:31:31;;;;;;;8.30;5.12;;;;;;;;;;4359227;32;20093;-70
2021/08/23 09:34:06;;;;;;;7.45;5.15;;;;;;;;;;4343505;32;20074;-70
2021/08/23 09:36:32;;;;;;;6.80;5.65;;;;;;;;;;4356588;32;20170;-74
2021/08/23 09:39:12;;;;;;;6.50;5.20;;;;;;;;;;4333631;32;20083;-70
2021/08/23 09:41:41;;;;;;;7.45;5.03;;;;;;;;;;4364630;32;20101;-72
2021/08/23 09:44:09;;;;;;;6.47;5.22;;;;;;;;;;4351928;32;20480;-72
2021/08/23 09:46:36;;;;;;;7.70;5.20;;;;;;;;;;4372687;32;20091;-72
2021/08/23 09:49:04;;;;;;;6.05;5.07;;;;;;;;;;4355008;32;20147;-70
2021/08/23 09:51:39;;;;;;;7.20;5.50;;;;;;;;;;4350530;32;20083;-71
2021/08/23 09:54:06;;;;;;;8.40;5.50;;;;;;;;;;4366443;32;20153;-69
2021/08/23 09:56:34;;;;;;;8.85;5.20;;;;;;;;;;4351239;32;20081;-72
2021/08/23 09:59:03;;;;;;;6.57;5.05;;;;;;;;;;4360288;32;20058;-71
2021/08/23 10:01:33;;;;;;;6.47;5.25;;;;;;;;;;4348622;32;20090;-72
2021/08/23 10:04:06;;;;;;;6.28;5.28;;;;;;;;;;4358415;32;20078;-74
2021/08/23 10:06:38;;;;;;;9.43;5.72;;;;;;;;;;4348613;32;20197;-73
2021/08/23 10:09:04;;;;;;;6.35;5.43;;;;;;;;;;4335687;32;20101;-73
2021/08/23 10:11:36;;;;;;;7.30;5.30;;;;;;;;;;4360874;32;20175;-73
2021/08/23 10:14:03;;;;;;;7.20;5.28;;;;;;;;;;4347542;32;20059;-74
2021/08/23 10:16:30;;;;;;;7.85;5.30;;;;;;;;;;4361304;32;20100;-70
2021/08/23 10:18:57;;;;;;;7.10;5.57;;;;;;;;;;4349434;32;20078;-71
2021/08/23 10:21:23;;;;;;;6.65;5.12;;;;;;;;;;4353245;32;20112;-71
2021/08/23 10:23:51;;;;;;;7.75;5.87;;;;;;;;;;4338014;32;20097;-71
2021/08/23 10:26:17;;;;;;;7.72;5.28;;;;;;;;;;4351798;32;20070;-72
2021/08/23 10:28:50;;;;;;;7.07;5.03;;;;;;;;;;4355015;32;20085;-73
2021/08/23 10:31:19;;;;;;;8.63;5.18;;;;;;;;;;4378512;32;20162;-72
2021/08/23 10:33:46;;;;;;;7.03;5.20;;;;;;;;;;4374106;32;20089;-73
2021/08/23 10:36:16;;;;;;;9.90;5.60;;;;;;;;;;4348659;32;20532;-70
2021/08/23 10:38:43;;;;;;;9.57;5.20;;;;;;;;;;4364947;32;20315;-71
2021/08/23 10:41:11;;;;;;;7.70;5.12;;;;;;;;;;4365871;32;20110;-73
2021/08/23 10:43:47;;;;;;;7.22;5.78;;;;;;;;;;4365104;32;20066;-70
2021/08/23 10:46:20;;;;;;;6.90;5.05;;;;;;;;;;4354308;32;20082;-71
2021/08/23 10:48:50;;;;;;;7.03;5.30;;;;;;;;;;4367764;32;20096;-70
2021/08/23 10:51:38;;;;;;;6.22;5.40;;;;;;;;;;4349455;32;20074;-71
2021/08/23 10:54:24;;;;;;;10.85;5.15;;;;;;;;;;4368689;32;20530;-70
2021/08/23 10:57:00;;;;;;;8.45;5.40;;;;;;;;;;4351896;32;20523;-68
2021/08/23 10:59:37;;;;;;;8.40;5.30;;;;;;;;;;4370184;32;20556;-70
2021/08/23 11:02:03;;;;;;;7.37;5.55;;;;;;;;;;4373397;32;20154;-70
2021/08/23 11:04:36;;;;;;;6.90;5.30;;;;;;;;;;4370065;32;20447;-70
2021/08/23 11:07:03;;;;;;;6.93;5.57;;;;;;;;;;4350025;32;20066;-70
2021/08/23 11:09:36;;;;;;;9.80;5.32;;;;;;;;;;4338646;32;20063;-70
2021/08/23 11:12:09;;;;;;;7.68;5.47;;;;;;;;;;4368821;32;20094;-71
2021/08/23 11:14:53;;;;;;;7.65;5.65;;;;;;;;;;4368325;32;20062;-73
2021/08/23 11:17:33;;;;;;;7.30;5.47;;;;;;;;;;4350516;32;20078;-70
2021/08/23 11:20:02;;;;;;;5.97;5.20;;;;;;;;;;4371323;32;20194;-71
2021/08/23 11:22:29;;;;;;;8.23;5.25;;;;;;;;;;4361274;32;20113;-71
2021/08/23 11:24:55;;;;;;;7.12;4.95;;;;;;;;;;4341566;32;20093;-73
2021/08/23 11:27:23;;;;;;;7.30;5.18;;;;;;;;;;4344982;32;20116;-73
2021/08/23 11:29:51;;;;;;;7.45;5.57;;;;;;;;;;4366880;32;20090;-71
2021/08/23 11:32:27;;;;;;;8.57;5.05;;;;;;;;;;4355793;32;20077;-71
2021/08/23 11:34:55;;;;;;;9.93;6.53;;;;;;;;;;4356741;32;20066;-72
2021/08/23 11:37:25;;;;;;;11.40;5.18;;;;;;;;;;4358768;32;20074;-70
2021/08/23 11:40:08;;;;;;;7.78;5.35;;;;;;;;;;4362427;32;20070;-79
2021/08/23 11:42:35;;;;;;;7.22;5.65;;;;;;;;;;4358662;32;20097;-68
2021/08/23 11:45:01;;;;;;;6.95;5.35;;;;;;;;;;4348218;32;20177;-70
2021/08/23 11:47:33;;;;;;;8.93;6.55;;;;;;;;;;4358250;32;20237;-71
2021/08/23 11:50:00;;;;;;;8.30;5.22;;;;;;;;;;4362840;32;20078;-71
2021/08/23 11:52:26;;;;;;;9.68;5.68;;;;;;;;;;4350027;32;20117;-70
2021/08/23 11:54:54;;;;;;;7.37;5.55;;;;;;;;;;4367075;32;20077;-68
2021/08/23 11:57:22;;;;;;;7.85;5.35;;;;;;;;;;4338116;32;20082;-65
2021/08/23 11:59:59;;;;;;;6.70;5.25;;;;;;;;;;4363147;32;20090;-65
2021/08/23 12:02:34;;;;;;;6.47;5.30;;;;;;;;;;4372738;32;20445;-78
2021/08/23 12:05:08;;;;;;;7.00;5.40;;;;;;;;;;4349872;32;20111;-72
2021/08/23 12:08:24;;;;;;;9.05;6.57;;;;;;;;;;4355479;32;20169;-72
2021/08/23 12:10:57;;;;;;;7.43;5.78;;;;;;;;;;4311929;33;20084;-67
2021/08/23 12:13:25;;;;;;;7.07;5.47;;;;;;;;;;4367576;32;20089;-69
2021/08/23 12:15:59;;;;;;;7.85;5.62;;;;;;;;;;4366696;32;20077;-67
2021/08/23 12:18:45;;;;;;;9.05;5.72;;;;;;;;;;4381159;32;20086;-69
2021/08/23 12:21:25;;;;;;;8.73;5.60;;;;;;;;;;4379771;32;20117;-69
2021/08/23 12:23:55;;;;;;;6.78;5.60;;;;;;;;;;4368442;32;20127;-70
2021/08/23 12:26:26;;;;;;;6.87;5.40;;;;;;;;;;4366887;32;20109;-68
2021/08/23 12:28:59;;;;;;;10.95;6.03;;;;;;;;;;4348035;32;20141;-67
2021/08/23 12:31:26;;;;;;;10.07;5.95;;;;;;;;;;4366794;32;20121;-71
2021/08/23 12:33:52;;;;;;;8.52;6.07;;;;;;;;;;4344573;32;20110;-68
2021/08/23 12:36:19;;;;;;;7.07;5.95;;;;;;;;;;4341655;32;20081;-71
2021/08/23 12:38:46;;;;;;;9.30;6.35;;;;;;;;;;4352567;32;20150;-71
2021/08/23 12:41:12;;;;;;;9.45;6.55;;;;;;;;;;4347716;32;20493;-71
2021/08/23 12:43:40;;;;;;;9.57;6.18;;;;;;;;;;4353124;32;20128;-70
2021/08/23 12:46:06;;;;;;;9.95;6.20;;;;;;;;;;4356747;32;20444;-70
2021/08/23 12:48:33;;;;;;;9.32;6.18;;;;;;;;;;4349035;32;20080;-69
2021/08/23 12:51:00;;;;;;;12.25;6.32;;;;;;;;;;4379588;32;20101;-66
2021/08/23 12:53:27;;;;;;;10.85;6.85;;;;;;;;;;4344777;32;20147;-68
2021/08/23 12:55:54;;;;;;;12.55;6.37;;;;;;;;;;4360264;32;20183;-69
2021/08/23 12:58:20;;;;;;;9.63;5.70;;;;;;;;;;4367231;32;20069;-68
2021/08/23 13:00:49;;;;;;;8.82;6.32;;;;;;;;;;4368056;32;20147;-70
2021/08/23 13:03:16;;;;;;;7.57;5.72;;;;;;;;;;4350299;32;20151;-71
2021/08/23 13:05:43;;;;;;;9.35;5.60;;;;;;;;;;4348593;32;20220;-70
2021/08/23 13:08:10;;;;;;;9.73;6.20;;;;;;;;;;4362315;32;20436;-69
2021/08/23 13:10:42;;;;;;;12.10;5.93;;;;;;;;;;4356732;32;20121;-67
2021/08/23 13:13:10;;;;;;;10.25;6.22;;;;;;;;;;4357381;32;20486;-64
2021/08/23 13:15:37;;;;;;;11.00;5.72;;;;;;;;;;4347416;32;20081;-66
2021/08/23 13:18:04;;;;;;;8.27;5.90;;;;;;;;;;4368371;32;20070;-65
2021/08/23 13:20:30;;;;;;;9.55;5.15;;;;;;;;;;4366215;32;20082;-64
2021/08/23 13:22:57;;;;;;;8.80;5.55;;;;;;;;;;4370179;32;20129;-64
2021/08/23 13:25:23;;;;;;;8.40;5.80;;;;;;;;;;4367957;32;20094;-67
2021/08/23 13:27:50;;;;;;;6.95;5.60;;;;;;;;;;4360350;32;20080;-65
2021/08/23 13:30:16;;;;;;;9.95;5.95;;;;;;;;;;4354680;32;20150;-67
2021/08/23 13:32:43;;;;;;;8.80;5.85;;;;;;;;;;4344575;32;20101;-72
2021/08/23 13:35:09;;;;;;;10.93;5.95;;;;;;;;;;4361506;32;20078;-68
2021/08/23 13:37:37;;;;;;;8.45;5.93;;;;;;;;;;4365035;32;20084;-69
2021/08/23 13:40:07;;;;;;;8.15;6.15;;;;;;;;;;4359876;32;20066;-70
2021/08/23 13:42:34;;;;;;;8.60;5.50;;;;;;;;;;4371454;32;20077;-71
2021/08/23 13:45:01;;;;;;;14.00;5.78;;;;;;;;;;4373378;32;20094;-69
2021/08/23 13:47:27;;;;;;;8.32;5.37;;;;;;;;;;4348378;32;20166;-72
2021/08/23 13:49:55;;;;;;;7.43;5.35;;;;;;;;;;4345549;32;20086;-69
2021/08/23 13:52:22;;;;;;;8.82;5.53;;;;;;;;;;4385659;32;20261;-72
2021/08/23 13:54:49;;;;;;;8.88;5.35;;;;;;;;;;4368274;32;20067;-70
2021/08/23 13:57:15;;;;;;;7.47;5.43;;;;;;;;;;4353380;32;20192;-74
2021/08/23 13:59:42;;;;;;;7.62;5.22;;;;;;;;;;4352375;32;20864;-73
2021/08/23 14:02:08;;;;;;;13.02;5.10;;;;;;;;;;4348532;32;20086;-72
2021/08/23 14:04:37;;;;;;;7.60;5.80;;;;;;;;;;4365124;32;20114;-71
2021/08/23 14:07:04;;;;;;;8.02;5.10;;;;;;;;;;4354021;32;20087;-73
2021/08/23 14:09:30;;;;;;;7.85;4.97;;;;;;;;;;4342745;32;20105;-72
2021/08/23 14:11:59;;;;;;;8.10;4.80;;;;;;;;;;4369380;32;20105;-70
2021/08/23 14:14:25;;;;;;;9.63;5.50;;;;;;;;;;4367447;32;20063;-68
2021/08/23 14:16:52;;;;;;;6.32;5.25;;;;;;;;;;4362283;32;20437;-68
2021/08/23 14:19:19;;;;;;;8.40;5.40;;;;;;;;;;4370345;32;20496;-66
2021/08/23 14:21:46;;;;;;;6.80;4.97;;;;;;;;;;4372488;32;20505;-66
2021/08/23 14:24:13;;;;;;;7.65;5.07;;;;;;;;;;4358402;32;20085;-69
2021/08/23 14:26:39;;;;;;;10.00;5.80;;;;;;;;;;4358849;32;20116;-70
2021/08/23 14:29:06;;;;;;;10.23;5.87;;;;;;;;;;4351880;32;20145;-66
2021/08/23 14:31:32;;;;;;;8.07;6.25;;;;;;;;;;4360884;32;20105;-66
2021/08/23 14:33:59;;;;;;;10.88;6.22;;;;;;;;;;4347832;32;20078;-69
2021/08/23 14:36:25;;;;;;;9.32;6.45;;;;;;;;;;4364870;32;20077;-70
2021/08/23 14:38:52;;;;;;;12.55;6.65;;;;;;;;;;4368160;32;20078;-72
2021/08/23 14:41:18;;;;;;;13.07;6.57;;;;;;;;;;4369990;32;20117;-69
2021/08/23 14:43:45;;;;;;;11.02;6.05;;;;;;;;;;4367935;32;20153;-70
2021/08/23 14:46:11;;;;;;;11.07;6.62;;;;;;;;;;4356420;32;20079;-66
2021/08/23 14:48:40;;;;;;;10.18;6.05;;;;;;;;;;4344616;32;20093;-70